Time;durP1;ratioP1;P1;durP2;ratioP2;P2;SDS_P1;SDS_P2;PMS_P1;PMS_P2;Temp;Humidity;BMP_temperature;BMP_pressure;BME280_temperature;BME280_humidity;BME280_pressure;Samples;Min_cycle;Max_cycle;Signal;HPM_P1;HPM_P2
2024/04/06 00:00:10;;;;;;;4.20;2.13;;;15.40;90.30;;;;;;5001245;28;20442;-44
2024/04/06 00:02:35;;;;;;;2.57;2.10;;;15.40;94.10;;;;;;5018013;28;20197;-46
2024/04/06 00:05:01;;;;;;;2.23;1.87;;;15.40;98.30;;;;;;5018640;28;20564;-43
2024/04/06 00:07:27;;;;;;;2.70;2.13;;;15.40;99.90;;;;;;5018124;28;20202;-43
2024/04/06 00:09:53;;;;;;;3.53;1.93;;;15.40;99.90;;;;;;5016682;28;20226;-44
2024/04/06 00:12:19;;;;;;;4.17;2.70;;;15.30;99.90;;;;;;5018667;28;20689;-43
2024/04/06 00:14:45;;;;;;;2.90;2.40;;;15.30;99.90;;;;;;5018297;28;20194;-43
2024/04/06 00:17:10;;;;;;;2.90;2.17;;;15.20;99.90;;;;;;5017658;28;20202;-44
2024/04/06 00:19:36;;;;;;;2.87;2.30;;;15.10;99.90;;;;;;5017376;28;20426;-42
2024/04/06 00:22:02;;;;;;;3.03;2.10;;;15.00;99.90;;;;;;5016773;28;20285;-42
2024/04/06 00:24:28;;;;;;;2.80;2.53;;;15.00;99.90;;;;;;5017172;28;20292;-44
2024/04/06 00:26:53;;;;;;;2.83;2.00;;;14.90;99.90;;;;;;5016653;28;20456;-44
2024/04/06 00:29:19;;;;;;;2.73;1.90;;;14.90;99.90;;;;;;5015196;28;20438;-42
2024/04/06 00:31:45;;;;;;;3.10;2.00;;;14.80;1.00;;;;;;5016621;28;20245;-43
2024/04/06 00:34:11;;;;;;;2.50;1.83;;;14.70;1.00;;;;;;5015173;28;20194;-43
2024/04/06 00:36:36;;;;;;;2.87;2.00;;;14.70;1.00;;;;;;5015637;28;20194;-44
2024/04/06 00:39:02;;;;;;;2.17;1.60;;;14.60;1.00;;;;;;5016955;28;20178;-42
2024/04/06 00:41:28;;;;;;;2.80;2.10;;;14.60;1.00;;;;;;5017645;28;20481;-44
2024/04/06 00:43:57;;;;;;;3.60;2.03;;;14.60;1.00;;;;;;5017191;28;20473;-42
2024/04/06 00:46:23;;;;;;;3.73;2.10;;;14.50;1.00;;;;;;5017727;28;20328;-43
2024/04/06 00:48:48;;;;;;;3.40;2.20;;;14.50;1.00;;;;;;4999788;28;20492;-43
2024/04/06 00:51:14;;;;;;;2.77;1.90;;;14.50;1.00;;;;;;5018020;28;20179;-44
2024/04/06 00:53:40;;;;;;;3.07;1.77;;;14.50;1.00;;;;;;5017363;28;20187;-44
2024/04/06 00:56:07;;;;;;;2.40;2.03;;;14.50;1.00;;;;;;4999874;28;20179;-42
2024/04/06 00:58:32;;;;;;;1.83;1.63;;;14.50;1.00;;;;;;4999805;28;20934;-42
2024/04/06 01:00:58;;;;;;;3.43;1.47;;;14.50;1.00;;;;;;5015904;28;20433;-41
2024/04/06 01:03:24;;;;;;;2.17;1.83;;;14.50;1.00;;;;;;4999151;28;20638;-41
2024/04/06 01:05:50;;;;;;;2.60;2.17;;;14.50;1.00;;;;;;5016808;28;20190;-44
2024/04/06 01:08:15;;;;;;;3.17;1.70;;;14.50;1.00;;;;;;5016634;28;20438;-42
2024/04/06 01:10:41;;;;;;;2.37;2.00;;;14.50;1.00;;;;;;4982841;28;20227;-42
2024/04/06 01:13:07;;;;;;;4.20;1.90;;;14.40;1.00;;;;;;5016838;28;20279;-42
2024/04/06 01:15:34;;;;;;;3.10;2.10;;;14.40;1.00;;;;;;5017714;28;20183;-42
2024/04/06 01:18:01;;;;;;;2.53;2.00;;;14.40;1.00;;;;;;5017819;28;20576;-45
2024/04/06 01:20:27;;;;;;;2.07;1.73;;;14.30;1.00;;;;;;5017949;28;20851;-42
2024/04/06 01:22:52;;;;;;;3.83;2.50;;;14.30;1.00;;;;;;5017755;28;20529;-42
2024/04/06 01:25:18;;;;;;;2.40;2.00;;;14.20;8.30;;;;;;5017135;28;20317;-42
2024/04/06 01:27:46;;;;;;;3.17;1.90;;;14.20;11.60;;;;;;5018035;28;20222;-42
2024/04/06 01:30:14;;;;;;;2.67;2.17;;;14.20;27.60;;;;;;5016989;28;20265;-42
2024/04/06 01:32:50;;;;;;;2.77;1.80;;;14.20;97.00;;;;;;5016307;28;20521;-43
2024/04/06 01:35:16;;;;;;;2.37;2.00;;;14.10;99.90;;;;;;4996825;28;20469;-41
2024/04/06 01:37:42;;;;;;;2.17;1.87;;;14.10;99.90;;;;;;4998460;28;20430;-42
2024/04/06 01:40:08;;;;;;;3.70;2.10;;;14.10;99.90;;;;;;4997806;28;20435;-43
2024/04/06 01:42:35;;;;;;;2.40;2.07;;;14.00;99.90;;;;;;4997672;28;20183;-42
2024/04/06 01:45:00;;;;;;;2.67;2.17;;;14.00;99.90;;;;;;4997720;28;20466;-42
2024/04/06 01:47:26;;;;;;;4.13;2.23;;;14.00;99.90;;;;;;4997903;28;20466;-44
2024/04/06 01:49:52;;;;;;;3.10;2.10;;;13.90;1.00;;;;;;4998185;28;20513;-43
2024/04/06 01:52:18;;;;;;;3.27;2.17;;;13.90;99.90;;;;;;4980235;28;20549;-42
2024/04/06 01:54:43;;;;;;;2.40;1.70;;;13.90;99.90;;;;;;4997540;28;20210;-42
2024/04/06 01:57:09;;;;;;;3.33;2.30;;;13.90;1.00;;;;;;4997346;28;20216;-42
2024/04/06 01:59:35;;;;;;;4.03;2.40;;;13.80;1.00;;;;;;4997876;28;20184;-42
2024/04/06 02:02:01;;;;;;;3.20;2.00;;;13.80;1.00;;;;;;4997146;28;20429;-43
2024/04/06 02:04:27;;;;;;;2.77;2.17;;;13.90;1.00;;;;;;4997443;28;20509;-42
2024/04/06 02:10:14;;;;;;;2.57;1.80;;;13.80;1.00;;;;;;5000542;28;20285;-42
2024/04/06 02:12:40;;;;;;;3.63;2.20;;;13.90;1.00;;;;;;5001035;28;20725;-44
2024/04/06 02:15:06;;;;;;;3.13;2.50;;;13.80;1.00;;;;;;5001148;28;20519;-44
2024/04/06 02:17:32;;;;;;;3.23;2.00;;;13.80;1.00;;;;;;5001447;28;20271;-42
2024/04/06 02:19:57;;;;;;;3.17;1.77;;;13.70;99.90;;;;;;5000905;28;20435;-44
2024/04/06 02:22:23;;;;;;;3.40;2.10;;;13.70;99.90;;;;;;5000644;28;20196;-42
2024/04/06 02:24:50;;;;;;;3.23;2.17;;;13.60;1.00;;;;;;4982424;28;20313;-44
2024/04/06 02:27:16;;;;;;;2.80;1.93;;;13.60;1.00;;;;;;5000243;28;20180;-43
2024/04/06 02:29:42;;;;;;;4.73;2.73;;;13.50;99.90;;;;;;5001137;28;20531;-44
2024/04/06 02:32:08;;;;;;;2.70;2.20;;;13.40;1.00;;;;;;5000200;28;20470;-44
2024/04/06 02:34:33;;;;;;;3.70;2.00;;;13.40;1.00;;;;;;5000536;28;20482;-42
2024/04/06 02:36:59;;;;;;;3.40;2.20;;;13.40;1.00;;;;;;5001184;28;20194;-42
2024/04/06 02:39:24;;;;;;;4.20;2.23;;;13.40;1.00;;;;;;4999620;28;20210;-42
2024/04/06 02:41:50;;;;;;;2.80;2.20;;;13.40;1.00;;;;;;4999998;28;20216;-41
2024/04/06 02:44:16;;;;;;;4.37;2.40;;;13.30;99.90;;;;;;4983645;28;20219;-41
2024/04/06 02:46:41;;;;;;;2.93;2.10;;;13.40;99.90;;;;;;4982690;28;20188;-42
2024/04/06 02:49:07;;;;;;;4.13;2.23;;;13.40;1.00;;;;;;4999665;28;20192;-42
2024/04/06 02:51:33;;;;;;;4.63;2.50;;;13.40;1.00;;;;;;5000122;28;20188;-42
2024/04/06 02:53:59;;;;;;;5.83;2.90;;;13.40;99.90;;;;;;4999566;28;20192;-42
2024/04/06 02:56:25;;;;;;;3.20;2.30;;;13.40;1.00;;;;;;5000075;28;20188;-44
2024/04/06 02:58:51;;;;;;;3.63;2.10;;;13.40;99.90;;;;;;4998010;28;20726;-42
2024/04/06 03:01:17;;;;;;;3.80;2.53;;;13.40;99.90;;;;;;4998141;28;20515;-44
2024/04/06 03:03:42;;;;;;;3.93;2.20;;;13.40;99.90;;;;;;4997962;28;20226;-43
2024/04/06 03:06:08;;;;;;;3.33;2.10;;;13.40;99.90;;;;;;4997729;28;20172;-41
2024/04/06 03:08:34;;;;;;;3.13;2.20;;;13.40;99.90;;;;;;4998241;28;20262;-43
2024/04/06 03:10:59;;;;;;;2.00;1.80;;;13.40;99.90;;;;;;4998491;28;20227;-43
2024/04/06 03:13:25;;;;;;;3.60;2.40;;;13.40;99.90;;;;;;4999697;28;20924;-45
2024/04/06 03:15:51;;;;;;;3.33;2.13;;;13.40;99.90;;;;;;5000540;28;20203;-43
2024/04/06 03:18:16;;;;;;;3.30;2.03;;;13.40;99.90;;;;;;4999896;28;20188;-41
2024/04/06 03:20:43;;;;;;;2.97;2.50;;;13.40;99.90;;;;;;4999926;28;20446;-42
2024/04/06 03:23:08;;;;;;;3.77;2.27;;;13.40;99.90;;;;;;4999911;28;20271;-43
2024/04/06 03:25:34;;;;;;;4.00;2.40;;;13.40;99.90;;;;;;5000163;28;20447;-42
2024/04/06 03:28:00;;;;;;;1.80;1.70;;;13.30;1.00;;;;;;4999670;28;20183;-42
2024/04/06 03:30:26;;;;;;;3.17;2.27;;;13.30;1.00;;;;;;4999303;28;20477;-44
2024/04/06 03:32:52;;;;;;;5.23;2.10;;;13.20;71.90;;;;;;4998688;28;20415;-41
2024/04/06 03:35:19;;;;;;;3.87;2.40;;;13.10;1.00;;;;;;4998387;28;20239;-42
2024/04/06 03:37:47;;;;;;;2.37;2.17;;;13.10;1.00;;;;;;4998134;28;20442;-41
2024/04/06 03:40:13;;;;;;;3.53;2.00;;;13.10;1.00;;;;;;4998817;28;20841;-43
2024/04/06 03:42:39;;;;;;;4.77;2.47;;;13.10;1.00;;;;;;4998902;28;20465;-42
2024/04/06 03:45:05;;;;;;;4.03;2.47;;;13.10;39.50;;;;;;4998955;28;20455;-44
2024/04/06 03:47:31;;;;;;;2.67;2.47;;;13.00;99.90;;;;;;4999322;28;20515;-42
2024/04/06 03:49:57;;;;;;;4.27;2.40;;;13.00;99.90;;;;;;4999746;28;20467;-42
2024/04/06 03:52:24;;;;;;;2.90;2.40;;;12.90;1.00;;;;;;4982269;28;20538;-41
2024/04/06 03:54:50;;;;;;;4.60;2.13;;;12.90;1.00;;;;;;4999522;28;20198;-43
2024/04/06 03:57:16;;;;;;;3.93;2.43;;;12.80;23.00;;;;;;4996673;28;20442;-42
2024/04/06 03:59:41;;;;;;;6.30;2.87;;;12.70;99.90;;;;;;4997156;28;20742;-41
2024/04/06 04:02:07;;;;;;;4.00;2.27;;;12.70;99.90;;;;;;4997643;28;20467;-43
2024/04/06 04:04:32;;;;;;;3.80;2.63;;;12.70;99.90;;;;;;4997794;28;20218;-42
2024/04/06 04:06:58;;;;;;;2.60;2.27;;;12.70;99.90;;;;;;4997827;28;20667;-43
2024/04/06 04:09:24;;;;;;;3.00;2.43;;;12.70;99.90;;;;;;4997916;28;20242;-46
2024/04/06 04:11:50;;;;;;;2.37;2.07;;;12.70;99.90;;;;;;4996881;28;20269;-43
2024/04/06 04:14:16;;;;;;;2.57;2.20;;;12.80;1.00;;;;;;4997307;28;20184;-43
2024/04/06 04:16:42;;;;;;;3.90;2.03;;;12.80;1.00;;;;;;4996976;28;20562;-42
2024/04/06 04:19:08;;;;;;;2.67;2.20;;;12.90;1.00;;;;;;4997476;28;20522;-46
2024/04/06 04:21:33;;;;;;;2.23;2.00;;;12.90;99.90;;;;;;4997732;28;20446;-43
2024/04/06 04:23:59;;;;;;;2.67;1.90;;;12.90;99.90;;;;;;4997612;28;20211;-42
2024/04/06 04:26:25;;;;;;;6.40;2.50;;;12.90;1.00;;;;;;4997886;28;20243;-43
2024/04/06 04:28:50;;;;;;;2.37;2.10;;;12.90;1.00;;;;;;4997649;28;20179;-41
2024/04/06 04:31:17;;;;;;;2.53;2.03;;;12.90;99.90;;;;;;4998371;28;20195;-42
2024/04/06 04:33:43;;;;;;;4.00;2.50;;;12.90;99.90;;;;;;4998718;28;20198;-41
2024/04/06 04:36:11;;;;;;;3.47;2.17;;;12.90;99.90;;;;;;4998549;28;21320;-42
2024/04/06 04:38:36;;;;;;;7.73;2.17;;;12.90;1.00;;;;;;4998495;28;20761;-42
2024/04/06 04:41:02;;;;;;;3.70;2.10;;;12.80;1.00;;;;;;4981210;28;20482;-41
2024/04/06 04:43:29;;;;;;;2.50;2.10;;;12.80;1.00;;;;;;4998366;28;20286;-41
2024/04/06 04:45:54;;;;;;;3.07;2.30;;;12.80;1.00;;;;;;4998475;28;20493;-44
2024/04/06 04:48:20;;;;;;;3.00;2.23;;;12.80;1.00;;;;;;4980892;28;20415;-42
2024/04/06 04:50:45;;;;;;;3.10;2.20;;;12.80;1.00;;;;;;4997863;28;20263;-42
2024/04/06 04:53:11;;;;;;;2.50;1.77;;;12.80;1.00;;;;;;4997627;28;20188;-43
2024/04/06 04:55:37;;;;;;;3.13;2.20;;;12.80;1.00;;;;;;4997583;28;20184;-42
2024/04/06 04:58:03;;;;;;;2.73;1.90;;;12.80;1.00;;;;;;4996436;28;20208;-43
2024/04/06 05:00:29;;;;;;;6.87;2.40;;;12.80;1.00;;;;;;4995169;28;20411;-44
2024/04/06 05:02:56;;;;;;;3.80;2.40;;;12.80;1.00;;;;;;4997001;28;20395;-42
2024/04/06 05:05:24;;;;;;;4.90;2.67;;;12.80;1.00;;;;;;4996356;28;20632;-42
2024/04/06 05:07:50;;;;;;;5.23;2.30;;;12.80;1.00;;;;;;4980975;28;20505;-41
2024/04/06 05:10:15;;;;;;;2.97;2.23;;;12.80;1.00;;;;;;4997670;28;20584;-41
2024/04/06 05:12:41;;;;;;;3.87;2.37;;;12.80;1.00;;;;;;4996596;28;20318;-42
2024/04/06 05:15:07;;;;;;;3.50;2.63;;;12.80;1.00;;;;;;4995682;28;20191;-44
2024/04/06 05:17:34;;;;;;;2.73;2.10;;;12.80;1.00;;;;;;4995467;28;20346;-41
2024/04/06 05:20:00;;;;;;;4.60;2.90;;;12.80;23.70;;;;;;4978504;28;20530;-43
2024/04/06 05:22:26;;;;;;;2.43;2.20;;;12.80;99.90;;;;;;4995632;28;20522;-42
2024/04/06 05:24:52;;;;;;;3.40;2.43;;;12.80;99.90;;;;;;4995146;28;20745;-43
2024/04/06 05:27:17;;;;;;;4.10;2.60;;;12.80;99.90;;;;;;4996152;28;20206;-43
2024/04/06 05:29:43;;;;;;;2.80;2.10;;;12.90;99.90;;;;;;4996779;28;20494;-41
2024/04/06 05:32:08;;;;;;;2.33;2.10;;;13.00;99.90;;;;;;4996875;28;20187;-42
2024/04/06 05:34:34;;;;;;;5.03;2.30;;;13.10;1.00;;;;;;4996912;28;20214;-43
2024/04/06 05:37:00;;;;;;;3.40;2.37;;;13.20;99.90;;;;;;4996192;28;20195;-41
2024/04/06 05:39:26;;;;;;;2.73;2.23;;;13.30;1.00;;;;;;4996897;28;20188;-42
2024/04/06 05:41:51;;;;;;;2.43;1.80;;;13.30;1.00;;;;;;5001009;28;20183;-42
2024/04/06 05:44:18;;;;;;;3.30;2.47;;;13.40;1.00;;;;;;5001590;28;20778;-42
2024/04/06 05:46:43;;;;;;;3.33;2.40;;;13.40;1.00;;;;;;5001724;28;20504;-44
2024/04/06 05:49:09;;;;;;;5.03;2.73;;;13.50;99.90;;;;;;5000909;28;20509;-42
2024/04/06 05:51:34;;;;;;;3.03;1.97;;;13.50;99.90;;;;;;5001449;28;20478;-42
2024/04/06 05:54:01;;;;;;;2.83;2.20;;;13.60;99.90;;;;;;5001195;28;20481;-41
2024/04/06 05:56:26;;;;;;;6.57;2.50;;;13.60;99.90;;;;;;4983556;28;20591;-42
2024/04/06 05:58:52;;;;;;;2.93;2.10;;;13.70;82.80;;;;;;4966840;28;20545;-42
2024/04/06 06:01:18;;;;;;;4.70;2.47;;;13.70;1.00;;;;;;5000124;28;20188;-41
2024/04/06 06:03:44;;;;;;;3.00;2.23;;;13.90;1.00;;;;;;4999519;28;20224;-43
2024/04/06 06:06:10;;;;;;;4.00;2.30;;;14.00;1.00;;;;;;4966582;28;20871;-42
2024/04/06 06:08:38;;;;;;;2.77;2.57;;;14.10;99.90;;;;;;4999739;28;20183;-43
2024/04/06 06:11:04;;;;;;;3.50;2.07;;;14.20;14.80;;;;;;4999774;28;20482;-42
2024/04/06 06:13:32;;;;;;;2.23;1.60;;;14.40;1.00;;;;;;4999834;28;20434;-42
2024/04/06 06:15:59;;;;;;;2.80;2.50;;;14.60;1.00;;;;;;4981443;28;20807;-43
2024/04/06 06:18:25;;;;;;;4.73;2.07;;;14.90;99.90;;;;;;4998700;28;20423;-43
2024/04/06 06:20:50;;;;;;;2.70;1.77;;;15.10;55.70;;;;;;5002931;28;20443;-42
2024/04/06 06:23:16;;;;;;;2.40;1.90;;;15.30;1.00;;;;;;5018456;28;20238;-43
2024/04/06 06:25:42;;;;;;;4.50;2.50;;;15.50;1.00;;;;;;5018703;28;20214;-45
2024/04/06 06:28:08;;;;;;;3.50;2.00;;;15.70;1.00;;;;;;5018663;28;20252;-42
2024/04/06 06:30:35;;;;;;;2.57;2.13;;;15.90;1.00;;;;;;5017943;28;20430;-43
2024/04/06 06:33:03;;;;;;;2.40;2.20;;;16.00;99.90;;;;;;5018619;28;20442;-46
2024/04/06 06:35:29;;;;;;;2.87;1.93;;;16.00;99.90;;;;;;5018344;28;20454;-42
2024/04/06 06:37:54;;;;;;;3.90;1.80;;;16.10;99.90;;;;;;5018171;28;20731;-44
2024/04/06 06:40:20;;;;;;;3.00;1.70;;;16.10;99.90;;;;;;5018879;28;20601;-43
2024/04/06 06:42:46;;;;;;;2.30;2.10;;;16.10;99.90;;;;;;5018260;28;20334;-43
2024/04/06 06:45:12;;;;;;;3.07;1.90;;;16.20;99.90;;;;;;5019092;28;20485;-44
2024/04/06 06:47:38;;;;;;;2.27;1.90;;;16.20;99.90;;;;;;5018685;28;20427;-44
2024/04/06 06:50:04;;;;;;;3.83;2.27;;;16.20;99.90;;;;;;5019664;28;20187;-43
2024/04/06 06:52:30;;;;;;;2.30;1.90;;;16.40;99.90;;;;;;5018528;28;20183;-43
2024/04/06 06:54:56;;;;;;;2.73;2.07;;;16.50;99.90;;;;;;5019244;28;20733;-43
2024/04/06 06:57:22;;;;;;;2.73;2.20;;;16.50;99.90;;;;;;5018684;28;20580;-42
2024/04/06 06:59:48;;;;;;;2.33;1.83;;;16.60;99.90;;;;;;5018304;28;20270;-43
2024/04/06 07:02:15;;;;;;;2.00;1.80;;;16.60;99.90;;;;;;5017851;28;20920;-46
2024/04/06 07:04:43;;;;;;;2.63;2.27;;;16.70;99.90;;;;;;5018598;28;20470;-45
2024/04/06 07:07:11;;;;;;;2.93;2.00;;;16.70;99.90;;;;;;5018462;28;20418;-45
2024/04/06 07:09:37;;;;;;;3.60;2.10;;;16.70;99.90;;;;;;5015291;28;20469;-44
2024/04/06 07:12:03;;;;;;;2.33;1.90;;;16.90;99.90;;;;;;4982121;28;20698;-43
2024/04/06 07:14:30;;;;;;;5.93;2.60;;;17.10;99.90;;;;;;4998902;28;20269;-42
2024/04/06 07:16:55;;;;;;;4.70;2.30;;;17.20;99.90;;;;;;4981303;28;20447;-42
2024/04/06 07:19:21;;;;;;;2.33;1.87;;;17.50;99.90;;;;;;4998247;28;20518;-44
2024/04/06 07:21:47;;;;;;;2.73;2.10;;;17.60;99.90;;;;;;4999160;28;20179;-43
2024/04/06 07:24:13;;;;;;;3.20;2.13;;;17.80;99.90;;;;;;4999095;28;20358;-43
2024/04/06 07:26:38;;;;;;;2.33;1.80;;;17.90;95.10;;;;;;4997316;28;20439;-43
2024/04/06 07:29:04;;;;;;;4.13;2.23;;;18.00;81.70;;;;;;4981540;28;20487;-43
2024/04/06 07:31:29;;;;;;;1.70;1.57;;;18.10;53.00;;;;;;4998231;28;20180;-44
2024/04/06 07:33:55;;;;;;;4.80;2.10;;;18.20;53.10;;;;;;4997883;28;20257;-45
2024/04/06 07:36:21;;;;;;;2.57;2.37;;;18.30;42.20;;;;;;4998119;28;20238;-41
2024/04/06 07:38:46;;;;;;;3.40;2.13;;;18.40;38.20;;;;;;4997592;28;20192;-46
2024/04/06 07:41:12;;;;;;;3.20;2.30;;;18.50;44.70;;;;;;4994933;28;20211;-44
2024/04/06 07:43:38;;;;;;;2.40;2.20;;;18.70;36.30;;;;;;4992631;28;20487;-41
2024/04/06 07:46:03;;;;;;;5.33;2.00;;;18.90;11.80;;;;;;4996883;28;20187;-41
2024/04/06 07:48:29;;;;;;;2.30;2.10;;;19.00;1.00;;;;;;4994887;28;20171;-43
2024/04/06 07:50:55;;;;;;;2.03;1.73;;;19.10;1.00;;;;;;4996244;28;20853;-43
2024/04/06 07:53:27;;;;;;;4.30;1.70;;;19.10;1.00;;;;;;4997416;28;20555;-43
2024/04/06 07:55:53;;;;;;;3.30;2.17;;;19.20;1.00;;;;;;4998549;28;20437;-44
2024/04/06 07:58:18;;;;;;;2.90;2.07;;;19.20;1.00;;;;;;4978056;28;20580;-44
2024/04/06 08:00:44;;;;;;;2.83;2.20;;;19.30;1.00;;;;;;4995814;28;20253;-41
2024/04/06 08:03:10;;;;;;;2.87;1.50;;;19.20;1.00;;;;;;4996143;28;20289;-42
2024/04/06 08:05:35;;;;;;;4.67;2.03;;;19.30;1.00;;;;;;4996518;28;20286;-41
2024/04/06 08:08:01;;;;;;;3.87;2.03;;;19.10;1.00;;;;;;4996189;28;20188;-43
2024/04/06 08:10:28;;;;;;;3.10;2.10;;;19.30;1.00;;;;;;4990449;28;20376;-41
2024/04/06 08:12:54;;;;;;;7.37;2.03;;;19.70;1.00;;;;;;5016500;28;20197;-42
2024/04/06 08:15:20;;;;;;;2.43;1.67;;;19.90;1.00;;;;;;5017189;28;20713;-44
2024/04/06 08:17:48;;;;;;;2.30;1.90;;;20.10;1.00;;;;;;5012479;28;20473;-43
2024/04/06 08:20:14;;;;;;;2.20;1.70;;;20.30;1.00;;;;;;4995352;28;20788;-42
2024/04/06 08:22:39;;;;;;;4.87;1.80;;;20.60;1.00;;;;;;5013965;28;20525;-44
2024/04/06 08:25:05;;;;;;;3.33;1.80;;;20.80;1.00;;;;;;5012946;28;20715;-45
2024/04/06 08:27:35;;;;;;;3.23;1.60;;;21.00;1.00;;;;;;5013226;28;20448;-45
2024/04/06 08:30:05;;;;;;;1.83;1.47;;;21.30;1.00;;;;;;5013404;28;20430;-42
2024/04/06 08:32:32;;;;;;;2.23;1.87;;;21.40;1.00;;;;;;5014771;28;20425;-41
2024/04/06 08:35:01;;;;;;;2.70;2.17;;;21.40;1.00;;;;;;5016238;28;20697;-44
2024/04/06 08:37:27;;;;;;;3.03;2.13;;;21.30;1.00;;;;;;5016302;28;20657;-43
2024/04/06 08:39:52;;;;;;;1.73;1.40;;;21.30;1.00;;;;;;5017075;28;20425;-42
2024/04/06 08:42:22;;;;;;;3.50;1.97;;;21.50;1.00;;;;;;5018208;28;20215;-43
2024/04/06 08:44:49;;;;;;;2.53;1.73;;;21.50;1.00;;;;;;5018028;28;20545;-43
2024/04/06 08:47:16;;;;;;;2.30;1.70;;;21.50;1.00;;;;;;5015502;28;20494;-42
2024/04/06 08:49:42;;;;;;;2.67;1.67;;;21.50;1.00;;;;;;5015603;28;20434;-44
2024/04/06 08:52:09;;;;;;;3.93;1.90;;;21.40;1.00;;;;;;5013907;28;20426;-45
2024/04/06 08:54:36;;;;;;;3.10;2.20;;;21.60;1.00;;;;;;5014544;28;20440;-42
2024/04/06 08:57:02;;;;;;;2.00;1.80;;;21.90;1.00;;;;;;5015790;28;20422;-43
2024/04/06 08:59:27;;;;;;;2.13;1.60;;;22.10;1.00;;;;;;4997884;28;20430;-43
2024/04/06 09:01:53;;;;;;;2.37;1.67;;;22.10;1.00;;;;;;5015591;28;20453;-43
2024/04/06 09:04:20;;;;;;;2.00;1.50;;;22.30;1.00;;;;;;5015171;28;20245;-44
2024/04/06 09:06:45;;;;;;;4.00;2.10;;;22.60;1.00;;;;;;5015128;28;20179;-42
2024/04/06 09:09:11;;;;;;;3.40;2.23;;;23.20;1.00;;;;;;5012130;28;20470;-47
2024/04/06 09:11:43;;;;;;;2.57;2.17;;;23.40;1.00;;;;;;4976857;28;20542;-43
2024/04/06 09:14:10;;;;;;;3.53;2.13;;;23.50;1.00;;;;;;4993470;28;20530;-44
2024/04/06 09:16:36;;;;;;;3.83;2.03;;;23.10;1.00;;;;;;4975922;28;20433;-42
2024/04/06 09:19:02;;;;;;;2.20;2.00;;;23.20;1.00;;;;;;4994187;28;20411;-44
2024/04/06 09:21:29;;;;;;;2.27;1.50;;;23.50;1.00;;;;;;4995893;28;20442;-43
2024/04/06 09:23:55;;;;;;;3.00;1.80;;;23.50;1.00;;;;;;4993792;28;20549;-43
2024/04/06 09:26:21;;;;;;;3.07;1.90;;;23.40;1.00;;;;;;4995829;28;20423;-46
2024/04/06 09:28:54;;;;;;;1.87;1.53;;;23.50;1.00;;;;;;4995727;28;20421;-44
2024/04/06 09:31:23;;;;;;;2.80;1.77;;;23.70;1.00;;;;;;4995578;28;20976;-44
2024/04/06 09:33:56;;;;;;;3.57;2.00;;;23.90;1.00;;;;;;4993622;28;20446;-42
2024/04/06 09:36:22;;;;;;;1.77;1.50;;;24.30;1.00;;;;;;4994831;28;20757;-45
2024/04/06 09:38:49;;;;;;;3.07;1.83;;;24.30;1.00;;;;;;4994349;28;20487;-43
2024/04/06 09:41:16;;;;;;;3.20;1.80;;;24.30;1.00;;;;;;4976859;28;20439;-43
2024/04/06 09:43:43;;;;;;;1.87;1.63;;;24.30;1.00;;;;;;4994793;28;20760;-45
2024/04/06 09:46:10;;;;;;;2.73;2.30;;;24.40;1.00;;;;;;4994693;28;20843;-46
2024/04/06 09:48:41;;;;;;;2.60;1.63;;;24.60;1.00;;;;;;4977033;28;20414;-45
2024/04/06 09:51:07;;;;;;;3.00;1.90;;;24.90;1.00;;;;;;4994288;28;20423;-47
2024/04/06 09:53:34;;;;;;;2.47;1.80;;;24.80;1.00;;;;;;4994041;28;20431;-43
2024/04/06 09:56:01;;;;;;;3.80;2.13;;;25.00;1.00;;;;;;4995980;28;20514;-45
2024/04/06 09:58:28;;;;;;;1.70;1.30;;;25.00;1.00;;;;;;4979220;28;20413;-43
2024/04/06 10:01:05;;;;;;;3.03;1.80;;;25.20;1.00;;;;;;4993976;28;20805;-44
2024/04/06 10:03:35;;;;;;;3.20;1.77;;;25.40;1.00;;;;;;4978100;28;20581;-43
2024/04/06 10:06:11;;;;;;;2.93;1.90;;;25.60;1.00;;;;;;4993789;28;20430;-43
2024/04/06 10:08:50;;;;;;;3.17;1.87;;;25.60;1.00;;;;;;4994878;28;20488;-44
2024/04/06 10:11:20;;;;;;;3.70;1.60;;;25.60;1.00;;;;;;4994200;28;20598;-45
2024/04/06 10:13:59;;;;;;;3.50;1.93;;;25.90;1.00;;;;;;4976678;28;20526;-45
2024/04/06 10:16:29;;;;;;;1.90;1.43;;;26.30;1.00;;;;;;4973885;28;20419;-44
2024/04/06 10:18:55;;;;;;;1.90;1.50;;;26.20;1.00;;;;;;4993717;28;20426;-43
2024/04/06 10:21:26;;;;;;;1.87;1.50;;;26.20;1.00;;;;;;4993166;28;20807;-44
2024/04/06 10:23:53;;;;;;;3.67;1.73;;;26.30;1.00;;;;;;4992440;28;20956;-44
2024/04/06 10:26:20;;;;;;;2.50;1.83;;;26.50;1.00;;;;;;4991179;28;20427;-44
2024/04/06 10:28:47;;;;;;;2.00;1.80;;;26.30;1.00;;;;;;4995094;28;20571;-43
2024/04/06 10:31:13;;;;;;;2.50;1.80;;;26.40;1.00;;;;;;4994157;28;20415;-44
2024/04/06 10:33:41;;;;;;;4.43;1.53;;;26.50;1.00;;;;;;4993279;28;20572;-45
2024/04/06 10:36:11;;;;;;;2.57;2.00;;;26.40;1.00;;;;;;4995911;28;20563;-44
2024/04/06 10:38:40;;;;;;;1.50;1.30;;;26.70;1.00;;;;;;4997761;28;20426;-43
2024/04/06 10:41:06;;;;;;;2.43;1.50;;;26.40;1.00;;;;;;4997733;28;20431;-47
2024/04/06 10:43:35;;;;;;;3.90;2.40;;;26.20;1.00;;;;;;4998753;28;20396;-47
2024/04/06 10:46:02;;;;;;;2.70;2.10;;;26.20;1.00;;;;;;4981498;28;20766;-45
2024/04/06 10:48:28;;;;;;;3.20;1.90;;;26.60;1.00;;;;;;4982029;28;20427;-45
2024/04/06 10:50:55;;;;;;;1.70;1.60;;;27.00;1.00;;;;;;4981779;28;20458;-45
2024/04/06 10:53:22;;;;;;;3.57;2.87;;;27.00;1.00;;;;;;4998923;28;20527;-46
2024/04/06 10:55:48;;;;;;;2.90;2.30;;;27.20;1.00;;;;;;4982447;28;20431;-45
2024/04/06 10:58:16;;;;;;;3.30;2.20;;;27.30;1.00;;;;;;4998827;28;20393;-45
2024/04/06 11:00:41;;;;;;;3.93;1.70;;;27.40;1.00;;;;;;4998042;28;20422;-45
2024/04/06 11:03:08;;;;;;;4.00;1.90;;;27.50;1.00;;;;;;4981825;28;20426;-44
2024/04/06 11:05:38;;;;;;;3.10;1.70;;;27.30;1.00;;;;;;4997831;28;20730;-46
2024/04/06 11:08:04;;;;;;;2.90;1.90;;;27.40;1.00;;;;;;4998494;28;20423;-44
2024/04/06 11:10:30;;;;;;;1.90;1.30;;;27.30;1.00;;;;;;4996594;28;20533;-45
2024/04/06 11:12:59;;;;;;;1.73;1.27;;;27.60;1.00;;;;;;4978798;28;20398;-46
2024/04/06 11:15:26;;;;;;;2.33;1.40;;;27.50;1.00;;;;;;4995190;28;20493;-44
2024/04/06 11:17:55;;;;;;;2.57;1.80;;;27.70;1.00;;;;;;4996169;28;20478;-46
2024/04/06 11:20:22;;;;;;;4.27;1.30;;;27.30;1.00;;;;;;4995476;28;20422;-44
2024/04/06 11:22:48;;;;;;;2.00;1.80;;;27.30;1.00;;;;;;4996282;28;20865;-45
2024/04/06 11:25:21;;;;;;;2.27;1.57;;;27.40;1.00;;;;;;4996502;28;20440;-44
2024/04/06 11:27:50;;;;;;;1.83;1.17;;;27.70;1.00;;;;;;4997408;28;20497;-47
2024/04/06 11:30:17;;;;;;;2.03;1.30;;;27.80;1.00;;;;;;4998015;28;20864;-46
2024/04/06 11:32:43;;;;;;;2.37;1.30;;;27.50;1.00;;;;;;4998187;28;20422;-44
2024/04/06 11:35:09;;;;;;;1.90;1.40;;;27.20;1.00;;;;;;4997814;28;20426;-45
2024/04/06 11:37:34;;;;;;;2.77;1.33;;;27.60;1.00;;;;;;4996451;28;20431;-43
2024/04/06 11:40:00;;;;;;;2.40;1.70;;;28.10;1.00;;;;;;4997856;28;20194;-45
2024/04/06 11:42:26;;;;;;;1.50;1.13;;;28.30;1.00;;;;;;4998497;28;20275;-44
2024/04/06 11:44:52;;;;;;;1.70;1.37;;;28.40;1.00;;;;;;4997191;28;20251;-43
2024/04/06 11:47:17;;;;;;;2.97;2.00;;;28.20;1.00;;;;;;4996484;28;20251;-44
2024/04/06 11:49:43;;;;;;;2.17;1.60;;;28.30;1.00;;;;;;4996808;28;20222;-48
2024/04/06 11:52:09;;;;;;;1.63;1.13;;;28.60;1.00;;;;;;4994946;28;20570;-44
2024/04/06 11:54:36;;;;;;;4.10;1.40;;;28.30;1.00;;;;;;4995689;28;20192;-46
2024/04/06 11:57:02;;;;;;;1.80;1.37;;;28.10;1.00;;;;;;4996894;28;20593;-45
2024/04/06 11:59:27;;;;;;;1.73;1.30;;;27.80;1.00;;;;;;4996696;28;20423;-44
2024/04/06 12:01:53;;;;;;;2.00;1.60;;;27.80;1.00;;;;;;4996981;28;20188;-46
2024/04/06 12:04:19;;;;;;;1.73;1.07;;;28.00;1.00;;;;;;4997972;28;20211;-44
2024/04/06 12:06:45;;;;;;;2.00;1.57;;;28.20;1.00;;;;;;4996942;28;20593;-43
2024/04/06 12:09:10;;;;;;;1.80;1.33;;;28.40;1.00;;;;;;4999777;28;20195;-46
2024/04/06 12:11:36;;;;;;;1.70;1.40;;;28.50;1.00;;;;;;5018049;28;20274;-45
2024/04/06 12:14:03;;;;;;;2.07;1.40;;;28.40;1.00;;;;;;5018360;28;20234;-47
2024/04/06 12:16:29;;;;;;;1.73;1.47;;;28.70;1.00;;;;;;5018100;28;20424;-45
2024/04/06 12:18:55;;;;;;;1.80;1.33;;;28.90;1.00;;;;;;5017507;28;20555;-45
2024/04/06 12:21:22;;;;;;;1.90;1.50;;;29.60;1.00;;;;;;5018857;28;20878;-46
2024/04/06 12:23:48;;;;;;;4.87;1.40;;;29.70;1.00;;;;;;5018015;28;20568;-44
2024/04/06 12:26:13;;;;;;;2.63;1.37;;;29.50;1.00;;;;;;5017510;28;20472;-44
2024/04/06 12:28:39;;;;;;;2.23;1.30;;;29.20;1.00;;;;;;5017422;28;20469;-46
2024/04/06 12:31:05;;;;;;;1.70;1.00;;;29.20;1.00;;;;;;5015824;28;20262;-46
2024/04/06 12:33:31;;;;;;;6.80;1.40;;;29.20;1.00;;;;;;5016748;28;20255;-44
2024/04/06 12:35:56;;;;;;;2.50;1.90;;;29.30;1.00;;;;;;5015177;28;20457;-45
2024/04/06 12:38:23;;;;;;;1.47;1.27;;;29.40;1.00;;;;;;4999234;28;20175;-44
2024/04/06 12:40:48;;;;;;;2.17;1.23;;;29.50;1.00;;;;;;5017401;28;20198;-46
2024/04/06 12:43:14;;;;;;;1.70;1.40;;;30.20;1.00;;;;;;5015785;28;20410;-45
2024/04/06 12:45:40;;;;;;;2.27;1.40;;;30.30;1.00;;;;;;5015207;28;20909;-46
2024/04/06 12:48:06;;;;;;;2.70;1.40;;;30.60;1.00;;;;;;5016993;28;20421;-48
2024/04/06 12:50:32;;;;;;;1.67;1.50;;;31.10;1.00;;;;;;4998261;28;20202;-44